createdAt,value
2018-07-17T00:04:54.685Z,22.13
2018-07-17T00:07:28.089Z,21.87
2018-07-17T00:13:04.777Z,21.70
2018-07-17T00:15:39.262Z,22.05
2018-07-17T00:26:56.538Z,22.18
2018-07-17T00:29:39.425Z,22.35
2018-07-17T00:32:09.810Z,22.43
2018-07-17T00:34:39.705Z,22.36
2018-07-17T00:37:09.571Z,22.14
2018-07-17T00:39:39.478Z,21.92
2018-07-17T00:42:09.373Z,21.79
2018-07-17T00:47:14.605Z,21.96
2018-07-17T00:49:44.472Z,21.99
2018-07-17T00:52:14.360Z,22.17
2018-07-17T00:54:44.179Z,22.30
2018-07-17T00:57:14.609Z,22.44
2018-07-17T00:59:44.173Z,22.71
2018-07-17T01:02:19.609Z,22.46
2018-07-17T01:04:54.625Z,22.36
2018-07-17T01:07:29.692Z,22.53
2018-07-17T01:10:04.897Z,22.44
2018-07-17T01:12:34.075Z,22.43
2018-07-17T01:15:11.827Z,22.21
2018-07-17T01:17:41.753Z,22.46
2018-07-17T01:20:11.967Z,22.57
2018-07-17T01:22:41.771Z,22.65
2018-07-17T01:25:11.658Z,22.50
2018-07-17T01:27:41.710Z,22.63
2018-07-17T01:30:11.581Z,22.60
2018-07-17T01:32:41.494Z,22.41
2018-07-17T01:35:11.428Z,22.38
2018-07-17T01:37:41.585Z,22.32
2018-07-17T01:40:11.496Z,22.33
2018-07-17T01:42:41.412Z,22.55
2018-07-17T01:45:11.244Z,22.62
2018-07-17T01:47:41.071Z,22.45
2018-07-17T01:50:10.958Z,22.44
2018-07-17T01:52:40.920Z,22.45
2018-07-17T01:55:10.506Z,22.49
2018-07-17T01:57:40.216Z,22.49
2018-07-17T02:00:09.956Z,22.50
2018-07-17T02:02:39.840Z,22.47
2018-07-17T02:05:09.653Z,22.60
2018-07-17T02:07:39.495Z,22.63
2018-07-17T02:10:09.346Z,22.56
2018-07-17T02:12:39.237Z,22.53
2018-07-17T02:15:09.053Z,22.54
2018-07-17T02:17:38.802Z,22.55
2018-07-17T02:20:10.490Z,22.65
2018-07-17T02:22:40.170Z,22.53
2018-07-17T02:25:09.932Z,22.54
2018-07-17T02:27:39.688Z,22.67
2018-07-17T02:30:09.435Z,22.73
2018-07-17T02:32:40.014Z,23.09
2018-07-17T02:35:10.440Z,23.24
2018-07-17T02:37:40.448Z,23.13
2018-07-17T02:40:10.199Z,23.08
2018-07-17T02:42:40.811Z,22.93
2018-07-17T02:45:10.593Z,22.94
2018-07-17T02:47:40.637Z,22.97
2018-07-17T02:50:10.593Z,22.95
2018-07-17T02:52:41.145Z,22.87
2018-07-17T02:55:10.919Z,22.89
2018-07-17T02:57:40.881Z,22.88
2018-07-17T03:00:10.710Z,23.03
2018-07-17T03:02:40.566Z,22.51
2018-07-17T03:05:10.498Z,22.41
2018-07-17T03:07:40.335Z,22.49
2018-07-17T03:10:10.112Z,22.34
2018-07-17T03:12:39.822Z,22.48
2018-07-17T03:15:09.626Z,22.52
2018-07-17T03:17:39.416Z,22.53
2018-07-17T03:20:09.248Z,22.23
2018-07-17T03:22:45.164Z,22.53
2018-07-17T03:25:24.176Z,22.49
2018-07-17T03:28:14.142Z,22.41
2018-07-17T03:30:48.929Z,22.57
2018-07-17T03:33:23.883Z,22.70
2018-07-17T03:36:03.637Z,22.46
2018-07-17T03:38:41.920Z,22.50
2018-07-17T03:41:19.028Z,22.75
2018-07-17T03:46:39.487Z,22.74
2018-07-17T03:49:14.499Z,22.67
2018-07-17T03:54:32.739Z,22.32
2018-07-17T03:57:09.580Z,23.05
2018-07-17T03:59:48.300Z,23.65
2018-07-17T04:02:26.463Z,23.91
2018-07-17T04:05:07.245Z,23.81
2018-07-17T04:07:48.997Z,23.66
2018-07-17T04:10:32.667Z,23.28
2018-07-17T04:13:07.397Z,23.05
2018-07-17T04:15:48.173Z,23.25
2018-07-17T04:18:27.305Z,23.32
2018-07-17T04:21:04.068Z,23.29
2018-07-17T04:23:38.095Z,23.12
2018-07-17T04:26:14.809Z,23.42
2018-07-17T04:28:53.181Z,23.23
2018-07-17T04:31:30.178Z,23.26
2018-07-17T04:34:10.111Z,23.42
2018-07-17T04:39:33.057Z,23.76
2018-07-17T04:42:11.800Z,23.53
2018-07-17T04:44:59.231Z,23.34
2018-07-17T04:50:40.641Z,23.75
2018-07-17T04:56:05.269Z,23.87
2018-07-17T04:58:43.751Z,24.01
2018-07-17T05:06:48.535Z,24.50
2018-07-17T05:09:29.308Z,24.39
2018-07-17T05:12:09.039Z,24.34
2018-07-17T05:14:42.339Z,24.70
2018-07-17T05:17:16.944Z,24.57
2018-07-17T05:19:56.941Z,24.84
2018-07-17T05:25:22.500Z,25.36
2018-07-17T05:28:08.841Z,25.83
2018-07-17T05:30:45.674Z,25.79
2018-07-17T05:33:28.137Z,26.23
2018-07-17T05:36:05.654Z,25.85
2018-07-17T05:38:47.401Z,26.12
2018-07-17T05:41:31.226Z,26.38
2018-07-17T05:44:06.122Z,26.71
2018-07-17T05:46:48.171Z,26.86
2018-07-17T05:49:30.307Z,27.01
2018-07-17T05:52:06.118Z,27.20
2018-07-17T05:54:50.524Z,27.14
2018-07-17T06:00:07.616Z,27.37
2018-07-17T06:05:36.364Z,27.15
2018-07-17T06:08:23.600Z,27.20
2018-07-17T06:11:02.215Z,27.34
2018-07-17T06:13:41.453Z,27.80
2018-07-17T06:16:18.020Z,27.82
2018-07-17T06:18:51.515Z,27.41
2018-07-17T06:21:38.385Z,27.28
2018-07-17T06:24:18.489Z,27.10
2018-07-17T06:26:58.709Z,27.19
2018-07-17T06:29:40.334Z,27.28
2018-07-17T06:32:16.828Z,27.32
2018-07-17T06:34:53.782Z,27.07
2018-07-17T06:37:35.524Z,26.95
2018-07-17T06:40:17.152Z,27.28
2018-07-17T06:42:55.991Z,27.18
2018-07-17T06:45:39.723Z,26.91
2018-07-17T06:48:18.026Z,26.64
2018-07-17T06:50:58.741Z,26.82
2018-07-17T06:53:35.885Z,27.02
2018-07-17T06:58:56.003Z,26.95
2018-07-17T07:01:32.316Z,26.77
2018-07-17T07:04:17.833Z,26.93
2018-07-17T07:07:01.515Z,27.05
2018-07-17T07:09:38.140Z,27.04
2018-07-17T07:12:24.984Z,27.16
2018-07-17T07:15:05.076Z,27.24
2018-07-17T07:17:48.237Z,27.49
2018-07-17T07:20:24.593Z,27.41
2018-07-17T07:23:02.165Z,27.19
2018-07-17T07:25:42.783Z,27.17
2018-07-17T07:28:22.296Z,27.16
2018-07-17T07:30:57.474Z,27.25
2018-07-17T07:33:35.055Z,27.15
2018-07-17T07:36:10.203Z,26.98
2018-07-17T07:38:49.625Z,27.14
2018-07-17T07:41:28.648Z,27.53
2018-07-17T07:46:47.323Z,27.57
2018-07-17T07:49:21.764Z,27.49
2018-07-17T07:52:01.422Z,27.51
2018-07-17T07:54:36.463Z,27.45
2018-07-17T07:57:17.613Z,27.61
2018-07-17T07:59:57.899Z,27.43
2018-07-17T08:02:36.076Z,27.64
2018-07-17T08:08:01.945Z,27.66
2018-07-17T08:10:41.607Z,27.48
2018-07-17T08:13:16.969Z,27.21
2018-07-17T08:15:55.410Z,27.20
2018-07-17T08:18:31.908Z,27.23
2018-07-17T08:21:10.618Z,27.29
2018-07-17T08:23:51.547Z,27.21
2018-07-17T08:26:33.091Z,27.36
2018-07-17T08:29:10.511Z,27.40
2018-07-17T08:31:48.982Z,27.52
2018-07-17T08:34:27.937Z,27.66
2018-07-17T08:37:11.155Z,27.72
2018-07-17T08:39:48.880Z,27.93
2018-07-17T08:42:28.797Z,28.19
2018-07-17T08:45:09.711Z,28.08
2018-07-17T08:47:51.150Z,27.85
2018-07-17T08:53:15.059Z,27.78
2018-07-17T08:55:55.977Z,27.72
2018-07-17T08:58:35.739Z,27.99
2018-07-17T09:04:06.676Z,28.09
2018-07-17T09:06:49.149Z,28.32
2018-07-17T09:09:29.744Z,28.58
2018-07-17T09:12:10.283Z,28.51
2018-07-17T09:14:51.888Z,28.07
2018-07-17T09:17:29.308Z,28.09
2018-07-17T09:20:07.661Z,28.62
2018-07-17T09:25:33.331Z,28.62
2018-07-17T09:28:08.488Z,28.84
2018-07-17T09:30:49.644Z,29.39
2018-07-17T09:33:32.280Z,29.26
2018-07-17T09:39:01.901Z,29.33
2018-07-17T09:41:39.276Z,29.39
2018-07-17T09:49:42.337Z,29.88
2018-07-17T09:52:18.427Z,29.65
2018-07-17T09:54:55.837Z,29.54
2018-07-17T09:57:40.723Z,29.67
2018-07-17T10:00:26.300Z,29.75
2018-07-17T10:03:06.237Z,29.56
2018-07-17T10:05:41.115Z,29.51
2018-07-17T10:08:18.176Z,29.61
2018-07-17T10:11:00.496Z,29.52
2018-07-17T10:13:36.062Z,29.34
2018-07-17T10:16:21.886Z,29.06
2018-07-17T10:19:03.820Z,29.17
2018-07-17T10:21:42.782Z,29.26
2018-07-17T10:24:24.271Z,29.20
2018-07-17T10:27:03.365Z,28.99
2018-07-17T10:35:07.886Z,28.60
2018-07-17T10:37:43.141Z,28.69
2018-07-17T10:40:27.519Z,28.82
2018-07-17T10:43:09.304Z,28.94
2018-07-17T10:45:47.409Z,28.90
2018-07-17T10:48:24.739Z,28.55
2018-07-17T10:56:34.229Z,28.17
2018-07-17T10:59:14.496Z,28.37
2018-07-17T11:01:55.601Z,28.50
2018-07-17T11:04:38.348Z,28.21
2018-07-17T11:07:14.064Z,28.18
2018-07-17T11:09:50.879Z,28.25
2018-07-17T11:12:35.566Z,28.17
2018-07-17T11:15:11.585Z,28.13
2018-07-17T11:17:51.199Z,28.16
2018-07-17T11:20:26.752Z,27.99
2018-07-17T11:23:06.935Z,28.20
2018-07-17T11:25:44.331Z,27.89
2018-07-17T11:28:23.198Z,28.15
2018-07-17T11:31:05.062Z,27.90
2018-07-17T11:33:46.679Z,27.97
2018-07-17T11:36:21.891Z,27.58
2018-07-17T11:39:01.905Z,27.71
2018-07-17T11:41:36.980Z,27.43
2018-07-17T11:44:14.644Z,27.65
2018-07-17T11:46:53.344Z,27.73
2018-07-17T11:49:33.640Z,27.77
2018-07-17T11:52:17.162Z,27.47
2018-07-17T11:55:02.838Z,27.54
2018-07-17T11:57:41.923Z,27.78
2018-07-17T12:00:19.108Z,27.66
2018-07-17T12:03:01.186Z,27.84
2018-07-17T12:05:46.942Z,27.91
2018-07-17T12:08:24.202Z,27.90
2018-07-17T12:11:00.869Z,27.48
2018-07-17T12:13:39.137Z,27.48
2018-07-17T12:16:20.315Z,27.52
2018-07-17T12:19:05.536Z,27.63
2018-07-17T12:21:43.882Z,27.69
2018-07-17T12:24:22.532Z,27.72
2018-07-17T12:27:05.795Z,27.79
2018-07-17T12:29:44.227Z,27.99
2018-07-17T12:32:20.783Z,28.14
2018-07-17T12:35:09.995Z,28.24
2018-07-17T12:37:49.146Z,28.27
2018-07-17T12:40:25.727Z,28.47
2018-07-17T12:43:04.191Z,28.47
2018-07-17T12:45:45.219Z,28.50
2018-07-17T12:48:29.065Z,28.70
2018-07-17T12:51:09.392Z,29.03
2018-07-17T12:53:48.725Z,29.03
2018-07-17T12:56:27.408Z,28.99
2018-07-17T12:59:08.390Z,29.03
2018-07-17T13:01:53.644Z,29.28
2018-07-17T13:04:27.580Z,29.30
2018-07-17T13:07:13.095Z,29.14
2018-07-17T13:09:54.842Z,29.30
2018-07-17T13:12:31.722Z,29.17
2018-07-17T13:15:14.665Z,29.00
2018-07-17T13:18:00.294Z,28.98
2018-07-17T13:20:45.741Z,29.20
2018-07-17T13:23:29.055Z,29.42
2018-07-17T13:26:08.528Z,29.85
2018-07-17T13:28:44.089Z,29.42
2018-07-17T13:31:22.864Z,29.28
2018-07-17T13:33:59.871Z,29.24
2018-07-17T13:36:39.352Z,29.81
2018-07-17T13:39:19.096Z,30.14
2018-07-17T13:41:52.917Z,30.66
2018-07-17T13:44:29.926Z,30.68
2018-07-17T13:47:06.681Z,31.02
2018-07-17T13:49:48.929Z,30.94
2018-07-17T13:52:31.736Z,30.95
2018-07-17T13:55:11.443Z,31.36
2018-07-17T13:57:48.381Z,31.80
2018-07-17T14:00:30.604Z,32.54
2018-07-17T14:03:06.616Z,32.91
2018-07-17T14:05:40.869Z,32.67
2018-07-17T14:08:18.601Z,32.44
2018-07-17T14:10:55.932Z,32.22
2018-07-17T14:13:34.157Z,32.16
2018-07-17T14:16:17.101Z,32.08
2018-07-17T14:18:58.578Z,32.04
2018-07-17T14:21:39.439Z,31.71
2018-07-17T14:24:16.230Z,32.07
2018-07-17T14:26:54.265Z,32.50
2018-07-17T14:29:36.702Z,32.88
2018-07-17T14:32:17.728Z,33.07
2018-07-17T14:35:01.203Z,33.10
2018-07-17T14:40:28.723Z,33.58
2018-07-17T14:45:55.996Z,33.26
2018-07-17T14:48:40.545Z,33.18
2018-07-17T14:51:18.334Z,33.67
2018-07-17T14:53:57.693Z,33.48
2018-07-17T14:56:33.220Z,33.56
2018-07-17T14:59:12.091Z,33.83
2018-07-17T15:01:50.926Z,33.73
2018-07-17T15:04:27.639Z,33.62
2018-07-17T15:07:16.637Z,33.64
2018-07-17T15:09:56.768Z,33.75
2018-07-17T15:12:30.868Z,33.27
2018-07-17T15:15:14.700Z,33.71
2018-07-17T15:17:51.951Z,33.94
2018-07-17T15:20:37.396Z,34.04
2018-07-17T15:23:23.999Z,34.10
2018-07-17T15:26:02.834Z,33.63
2018-07-17T15:28:40.361Z,33.51
2018-07-17T15:31:21.015Z,33.34
2018-07-17T15:34:00.107Z,33.38
2018-07-17T15:36:42.120Z,33.49
2018-07-17T15:39:19.468Z,33.55
2018-07-17T15:42:02.001Z,33.66
2018-07-17T15:44:41.067Z,34.08
2018-07-17T15:47:22.571Z,34.00
2018-07-17T15:50:06.697Z,34.09
2018-07-17T15:52:49.291Z,33.89
2018-07-17T15:55:28.924Z,33.60
2018-07-17T16:01:06.903Z,33.64
2018-07-17T16:03:51.577Z,33.51
2018-07-17T16:06:34.478Z,34.05
2018-07-17T16:12:11.458Z,34.30
2018-07-17T16:14:57.496Z,33.68
2018-07-17T16:17:32.060Z,33.67
2018-07-17T16:20:12.064Z,33.62
2018-07-17T16:22:49.441Z,33.27
2018-07-17T16:25:36.999Z,32.19
2018-07-17T16:28:16.430Z,32.05
2018-07-17T16:30:57.328Z,32.03
2018-07-17T16:33:39.596Z,32.31
2018-07-17T16:36:17.800Z,31.98
2018-07-17T16:38:56.027Z,32.06
2018-07-17T16:41:37.697Z,31.12
2018-07-17T16:49:51.135Z,31.26
2018-07-17T16:52:29.528Z,31.53
2018-07-17T16:55:07.138Z,31.78
2018-07-17T16:57:46.589Z,31.78
2018-07-17T17:00:26.927Z,31.41
2018-07-17T17:11:20.299Z,30.08
2018-07-17T17:13:57.271Z,29.67
2018-07-17T17:16:38.492Z,29.61
2018-07-17T17:19:18.319Z,30.07
2018-07-17T17:22:02.350Z,30.23
2018-07-17T17:24:47.725Z,31.23
2018-07-17T17:27:48.590Z,30.92
2018-07-17T17:36:17.260Z,30.51
2018-07-17T17:39:06.473Z,30.31
2018-07-17T17:44:45.873Z,30.59
2018-07-17T17:53:19.318Z,30.12
2018-07-17T17:56:11.313Z,29.85
2018-07-17T18:07:55.994Z,29.81
2018-07-17T18:10:41.545Z,29.79
2018-07-17T18:13:36.521Z,29.47
2018-07-17T18:16:33.647Z,29.30
2018-07-17T18:33:50.672Z,27.80
2018-07-17T18:36:47.840Z,27.52
2018-07-17T18:39:42.863Z,27.41
2018-07-17T18:42:31.695Z,27.42
2018-07-17T18:48:17.591Z,27.21
2018-07-17T19:06:09.415Z,26.14
2018-07-17T19:15:08.528Z,26.08
2018-07-17T19:23:42.720Z,25.73
2018-07-17T19:26:40.009Z,26.15
2018-07-17T19:29:37.854Z,25.74
2018-07-17T19:32:37.478Z,25.55
2018-07-17T19:35:30.792Z,25.73
2018-07-17T19:41:13.882Z,25.34
2018-07-17T19:44:02.610Z,25.04
2018-07-17T19:46:56.643Z,25.01
2018-07-17T20:01:41.658Z,24.90
2018-07-17T20:04:30.276Z,24.75
2018-07-17T20:07:26.329Z,24.54
2018-07-17T20:16:08.147Z,24.31
2018-07-17T20:18:59.350Z,24.12
2018-07-17T20:21:49.662Z,24.00
2018-07-17T20:27:45.409Z,23.65
2018-07-17T20:33:42.753Z,23.70
2018-07-17T20:36:29.831Z,23.81
2018-07-17T20:45:12.422Z,23.71
2018-07-17T20:48:16.002Z,24.11
2018-07-17T20:51:04.984Z,23.77
2018-07-17T21:02:32.914Z,23.09
2018-07-17T21:08:17.615Z,23.05
2018-07-17T21:16:59.600Z,22.97
2018-07-17T21:19:49.462Z,22.91
2018-07-17T21:25:45.731Z,22.67
2018-07-17T21:28:35.083Z,22.53
2018-07-17T21:40:24.346Z,22.39
2018-07-17T21:43:17.709Z,22.51
2018-07-17T21:46:11.151Z,22.71
2018-07-17T21:51:57.517Z,22.34
2018-07-17T21:54:55.758Z,22.50
2018-07-17T21:57:44.833Z,22.54
2018-07-17T22:06:28.505Z,22.12
2018-07-17T22:12:20.161Z,21.97
2018-07-17T22:15:13.933Z,21.68
2018-07-17T22:21:11.060Z,21.71
2018-07-17T22:26:59.032Z,21.82
2018-07-17T22:29:54.636Z,21.82
2018-07-17T22:35:49.377Z,21.65
2018-07-17T22:41:31.418Z,21.58
2018-07-17T22:50:19.304Z,21.70
2018-07-17T23:02:05.421Z,21.41
2018-07-17T23:05:00.129Z,21.72
2018-07-17T23:07:47.236Z,21.51
2018-07-17T23:13:47.140Z,20.51
2018-07-17T23:16:41.858Z,20.59
2018-07-17T23:28:35.229Z,21.55
2018-07-17T23:40:19.552Z,20.95
2018-07-17T23:49:04.113Z,20.76
2018-07-17T23:57:48.993Z,20.89
